Time;durP1;ratioP1;P1;durP2;ratioP2;P2;SDS_P1;SDS_P2;PMS_P1;PMS_P2;Temp;Humidity;BMP_temperature;BMP_pressure;BME280_temperature;BME280_humidity;BME280_pressure;Samples;Min_cycle;Max_cycle;Signal;HPM_P1;HPM_P2
2023/06/22 00:01:59;;;;;;;15.55;13.10;;;;;;;;;;4977598;28;20038;-59
2023/06/22 00:04:25;;;;;;;15.40;12.45;;;;;;;;;;4977660;28;20034;-59
2023/06/22 00:06:52;;;;;;;16.65;13.93;;;;;;;;;;4978150;28;20529;-59
2023/06/22 00:09:18;;;;;;;13.20;10.98;;;;;;;;;;4977449;28;20044;-59
2023/06/22 00:11:44;;;;;;;14.57;10.00;;;;;;;;;;4977027;28;20084;-59
2023/06/22 00:14:10;;;;;;;12.70;11.40;;;;;;;;;;4977303;28;20030;-59
2023/06/22 00:16:36;;;;;;;16.05;12.48;;;;;;;;;;4977650;28;21860;-59
2023/06/22 00:19:03;;;;;;;15.23;13.52;;;;;;;;;;4977787;28;20044;-59
2023/06/22 00:21:29;;;;;;;12.80;10.95;;;;;;;;;;4977352;28;20124;-59
2023/06/22 00:23:55;;;;;;;13.68;11.88;;;;;;;;;;4978141;28;20050;-59
2023/06/22 00:26:21;;;;;;;17.38;11.52;;;;;;;;;;4977286;28;20038;-58
2023/06/22 00:28:48;;;;;;;12.98;11.15;;;;;;;;;;4978303;28;20072;-59
2023/06/22 00:31:14;;;;;;;14.10;12.15;;;;;;;;;;4977583;28;20026;-59
2023/06/22 00:33:40;;;;;;;16.58;12.85;;;;;;;;;;4977830;28;20038;-59
2023/06/22 00:36:13;;;;;;;17.67;14.95;;;;;;;;;;4976778;28;20076;-59
2023/06/22 00:38:40;;;;;;;16.00;14.40;;;;;;;;;;4977949;28;20041;-59
2023/06/22 00:41:06;;;;;;;15.48;12.77;;;;;;;;;;4977483;28;20053;-59
2023/06/22 00:43:32;;;;;;;14.30;12.80;;;;;;;;;;4977553;28;20469;-59
2023/06/22 00:45:58;;;;;;;14.75;12.57;;;;;;;;;;4976785;28;20081;-59
2023/06/22 00:48:24;;;;;;;14.15;11.98;;;;;;;;;;4975940;28;20058;-59
2023/06/22 00:50:53;;;;;;;14.60;12.38;;;;;;;;;;4976299;28;20026;-59
2023/06/22 00:53:19;;;;;;;14.82;12.57;;;;;;;;;;4976704;28;20030;-59
2023/06/22 00:55:51;;;;;;;18.67;13.48;;;;;;;;;;4977753;28;20088;-59
2023/06/22 00:58:17;;;;;;;13.80;12.30;;;;;;;;;;4978258;28;20041;-59
2023/06/22 01:00:43;;;;;;;18.85;13.57;;;;;;;;;;4977723;28;20035;-59
2023/06/22 01:03:09;;;;;;;15.38;12.98;;;;;;;;;;4980953;28;20030;-59
2023/06/22 01:05:36;;;;;;;14.65;11.77;;;;;;;;;;4981086;28;20823;-59
2023/06/22 01:08:02;;;;;;;14.52;11.00;;;;;;;;;;4980809;28;20084;-59
2023/06/22 01:10:28;;;;;;;12.45;11.15;;;;;;;;;;4981300;28;20034;-59
2023/06/22 01:12:56;;;;;;;13.98;11.85;;;;;;;;;;4968634;28;20034;-59
2023/06/22 01:15:40;;;;;;;13.05;11.23;;;;;;;;;;4982001;28;20053;-59
2023/06/22 01:18:08;;;;;;;11.35;9.85;;;;;;;;;;4980689;28;20041;-59
2023/06/22 01:20:35;;;;;;;13.07;10.10;;;;;;;;;;4980704;28;20039;-59
2023/06/22 01:23:10;;;;;;;12.90;11.00;;;;;;;;;;4981152;28;20088;-59
2023/06/22 01:25:54;;;;;;;12.77;10.23;;;;;;;;;;4980625;28;20029;-59
2023/06/22 01:28:32;;;;;;;15.98;12.48;;;;;;;;;;4980009;28;20093;-59
2023/06/22 01:31:05;;;;;;;13.07;11.60;;;;;;;;;;4980032;28;20122;-58
2023/06/22 01:33:34;;;;;;;11.98;10.68;;;;;;;;;;4981150;28;20042;-59
2023/06/22 01:36:01;;;;;;;11.77;10.48;;;;;;;;;;4981709;28;20354;-59
2023/06/22 01:38:27;;;;;;;12.18;9.88;;;;;;;;;;4980094;28;20041;-58
2023/06/22 01:40:54;;;;;;;12.25;9.75;;;;;;;;;;4980944;28;20069;-58
2023/06/22 01:43:23;;;;;;;10.77;9.20;;;;;;;;;;4980658;28;20030;-58
2023/06/22 01:45:49;;;;;;;11.75;9.75;;;;;;;;;;4981233;28;20029;-59
2023/06/22 01:48:15;;;;;;;10.98;9.85;;;;;;;;;;4979865;28;20359;-59
2023/06/22 01:50:41;;;;;;;12.38;9.95;;;;;;;;;;4980137;28;20145;-58
2023/06/22 01:53:07;;;;;;;10.63;8.85;;;;;;;;;;4981508;28;20117;-59
2023/06/22 01:55:33;;;;;;;10.32;8.70;;;;;;;;;;4979867;28;20113;-59
2023/06/22 01:57:59;;;;;;;12.75;10.10;;;;;;;;;;4980748;28;20066;-59
2023/06/22 02:00:27;;;;;;;12.32;10.45;;;;;;;;;;4981102;28;20042;-58
2023/06/22 02:02:56;;;;;;;10.68;9.15;;;;;;;;;;4981176;28;20113;-58
2023/06/22 02:05:24;;;;;;;10.63;9.13;;;;;;;;;;4980771;28;20161;-59
2023/06/22 02:07:57;;;;;;;10.98;8.57;;;;;;;;;;4978598;28;20361;-59
2023/06/22 02:10:24;;;;;;;13.23;10.88;;;;;;;;;;4979580;28;20117;-59
2023/06/22 02:12:51;;;;;;;12.38;10.80;;;;;;;;;;4979552;28;20038;-59
2023/06/22 02:15:18;;;;;;;13.50;12.02;;;;;;;;;;4980368;28;20472;-59
2023/06/22 02:17:44;;;;;;;14.63;13.10;;;;;;;;;;4979511;28;20034;-59
2023/06/22 02:20:17;;;;;;;13.90;10.45;;;;;;;;;;4980099;28;21889;-59
2023/06/22 02:22:44;;;;;;;13.85;10.00;;;;;;;;;;4980139;28;20046;-59
2023/06/22 02:25:10;;;;;;;13.70;10.07;;;;;;;;;;4979163;28;20030;-59
2023/06/22 02:27:36;;;;;;;12.93;11.52;;;;;;;;;;4979436;28;21747;-58
2023/06/22 02:30:03;;;;;;;12.70;7.70;;;;;;;;;;4979419;28;20108;-59
2023/06/22 02:32:29;;;;;;;10.02;8.55;;;;;;;;;;4980072;28;20026;-58
2023/06/22 02:34:55;;;;;;;12.32;10.77;;;;;;;;;;4979967;28;20030;-59
2023/06/22 02:37:24;;;;;;;10.15;8.90;;;;;;;;;;4978395;28;20149;-59
2023/06/22 02:39:50;;;;;;;12.60;7.18;;;;;;;;;;4979361;28;20030;-63
2023/06/22 02:42:20;;;;;;;6.60;5.78;;;;;;;;;;4978554;28;20073;-62
2023/06/22 02:44:46;;;;;;;8.38;6.57;;;;;;;;;;4980043;28;20034;-62
2023/06/22 02:47:12;;;;;;;8.13;7.05;;;;;;;;;;4978653;28;20068;-63
2023/06/22 02:49:38;;;;;;;13.05;6.47;;;;;;;;;;4978213;28;20026;-63
2023/06/22 02:52:04;;;;;;;21.20;8.73;;;;;;;;;;4978955;28;20045;-62
2023/06/22 02:54:30;;;;;;;11.30;8.38;;;;;;;;;;4979025;28;20140;-62
2023/06/22 02:56:56;;;;;;;11.65;8.32;;;;;;;;;;4977640;28;20077;-63
2023/06/22 02:59:23;;;;;;;11.02;9.13;;;;;;;;;;4979779;28;20024;-62
2023/06/22 03:01:50;;;;;;;12.32;9.82;;;;;;;;;;4978206;28;20033;-63
2023/06/22 03:04:16;;;;;;;13.98;11.00;;;;;;;;;;4978874;28;21798;-62
2023/06/22 03:06:42;;;;;;;11.98;10.27;;;;;;;;;;5009395;28;20030;-63
2023/06/22 03:09:08;;;;;;;13.77;11.30;;;;;;;;;;4978772;28;20326;-63
2023/06/22 03:11:34;;;;;;;11.10;9.85;;;;;;;;;;4978123;28;20030;-62
2023/06/22 03:14:01;;;;;;;12.07;10.23;;;;;;;;;;4977832;28;20128;-63
2023/06/22 03:16:27;;;;;;;10.65;9.55;;;;;;;;;;4978296;28;20042;-63
2023/06/22 03:18:53;;;;;;;10.02;8.95;;;;;;;;;;4977721;28;20053;-63
2023/06/22 03:21:20;;;;;;;9.30;8.30;;;;;;;;;;4978180;28;20433;-62
2023/06/22 03:23:46;;;;;;;9.18;8.27;;;;;;;;;;4978432;28;20185;-62
2023/06/22 03:26:12;;;;;;;10.48;9.10;;;;;;;;;;4977292;28;20497;-62
2023/06/22 03:28:38;;;;;;;10.85;9.10;;;;;;;;;;4978542;28;20042;-62
2023/06/22 03:31:06;;;;;;;11.23;9.60;;;;;;;;;;4977782;28;20019;-62
2023/06/22 03:33:32;;;;;;;10.07;8.10;;;;;;;;;;4977708;28;20110;-62
2023/06/22 03:35:58;;;;;;;7.38;6.60;;;;;;;;;;4978392;28;20030;-63
2023/06/22 03:38:24;;;;;;;9.73;8.05;;;;;;;;;;4977625;28;20034;-63
2023/06/22 03:40:50;;;;;;;8.77;7.85;;;;;;;;;;4978430;28;20034;-63
2023/06/22 03:43:16;;;;;;;14.23;10.75;;;;;;;;;;4978826;28;20038;-63
2023/06/22 03:45:45;;;;;;;12.00;10.75;;;;;;;;;;4978492;28;20041;-62
2023/06/22 03:48:11;;;;;;;11.35;9.75;;;;;;;;;;4977067;28;20030;-63
2023/06/22 03:50:37;;;;;;;11.20;9.98;;;;;;;;;;4977880;28;20045;-63
2023/06/22 03:53:03;;;;;;;14.35;10.20;;;;;;;;;;4977399;28;20045;-63
2023/06/22 03:55:30;;;;;;;12.45;10.38;;;;;;;;;;4978170;28;21906;-62
2023/06/22 03:57:57;;;;;;;12.43;10.70;;;;;;;;;;4977981;28;20033;-62
2023/06/22 04:00:23;;;;;;;10.85;9.60;;;;;;;;;;4978105;28;21318;-63
2023/06/22 04:02:49;;;;;;;11.20;9.75;;;;;;;;;;4977615;28;20038;-62
2023/06/22 04:05:19;;;;;;;11.20;10.00;;;;;;;;;;4978033;28;20030;-63
2023/06/22 04:07:45;;;;;;;12.65;10.13;;;;;;;;;;4977476;28;20057;-63
2023/06/22 04:10:11;;;;;;;11.90;9.68;;;;;;;;;;4976222;28;20034;-62
2023/06/22 04:12:37;;;;;;;11.98;10.75;;;;;;;;;;4977543;28;20037;-62
2023/06/22 04:15:03;;;;;;;13.20;10.60;;;;;;;;;;4977964;28;20034;-63
2023/06/22 04:17:29;;;;;;;11.82;10.43;;;;;;;;;;4975802;28;20694;-63
2023/06/22 04:19:55;;;;;;;11.75;10.07;;;;;;;;;;4977360;28;20305;-62
2023/06/22 04:22:21;;;;;;;13.10;10.30;;;;;;;;;;4977234;28;20121;-62
2023/06/22 04:24:47;;;;;;;13.07;11.63;;;;;;;;;;4977835;28;20417;-63
2023/06/22 04:27:13;;;;;;;15.70;13.32;;;;;;;;;;4977895;28;20509;-62
2023/06/22 04:29:48;;;;;;;15.25;13.65;;;;;;;;;;4977079;28;20042;-62
2023/06/22 04:32:14;;;;;;;15.90;13.98;;;;;;;;;;4975923;28;20035;-62
2023/06/22 04:34:40;;;;;;;15.05;12.80;;;;;;;;;;4977383;28;20117;-63
2023/06/22 04:37:07;;;;;;;15.68;14.00;;;;;;;;;;4976026;28;20044;-62
2023/06/22 04:39:33;;;;;;;17.05;15.07;;;;;;;;;;4977959;28;20926;-63
2023/06/22 04:42:02;;;;;;;17.15;14.85;;;;;;;;;;5009048;28;20038;-63
2023/06/22 04:44:28;;;;;;;18.17;15.82;;;;;;;;;;4978726;28;21825;-63
2023/06/22 04:47:03;;;;;;;17.65;14.90;;;;;;;;;;4978528;28;20040;-62
2023/06/22 04:49:33;;;;;;;18.67;16.13;;;;;;;;;;4978178;28;20037;-62
2023/06/22 04:52:00;;;;;;;14.77;13.13;;;;;;;;;;4977042;28;20181;-62
2023/06/22 04:54:26;;;;;;;16.65;14.07;;;;;;;;;;4977956;28;20042;-62
2023/06/22 04:56:58;;;;;;;16.02;14.32;;;;;;;;;;4978534;28;20069;-62
2023/06/22 04:59:30;;;;;;;15.80;14.02;;;;;;;;;;4978387;28;20970;-59
2023/06/22 05:01:57;;;;;;;18.17;16.27;;;;;;;;;;4977967;28;21898;-59
2023/06/22 05:04:24;;;;;;;19.40;16.10;;;;;;;;;;4977755;28;20038;-59
2023/06/22 05:06:51;;;;;;;20.77;16.52;;;;;;;;;;4977974;28;20026;-59
2023/06/22 05:09:17;;;;;;;19.85;17.10;;;;;;;;;;4977295;28;20034;-59
2023/06/22 05:11:43;;;;;;;22.38;18.02;;;;;;;;;;4978135;28;20030;-59
2023/06/22 05:14:09;;;;;;;22.77;17.65;;;;;;;;;;4978069;28;20045;-59
2023/06/22 05:16:36;;;;;;;23.38;19.42;;;;;;;;;;4978131;28;20535;-59
2023/06/22 05:19:03;;;;;;;27.02;21.08;;;;;;;;;;4978087;28;20065;-59
2023/06/22 05:21:29;;;;;;;22.30;19.38;;;;;;;;;;4978042;28;20072;-59
2023/06/22 05:23:59;;;;;;;20.85;18.05;;;;;;;;;;4977500;28;20511;-59
2023/06/22 05:26:25;;;;;;;27.10;22.98;;;;;;;;;;4977325;28;20485;-59
2023/06/22 05:28:51;;;;;;;26.20;21.40;;;;;;;;;;4976976;28;21937;-59
2023/06/22 05:31:19;;;;;;;27.85;22.35;;;;;;;;;;4976798;28;20069;-59
2023/06/22 05:33:45;;;;;;;29.20;23.20;;;;;;;;;;4977148;28;21878;-59
2023/06/22 05:36:12;;;;;;;28.73;23.77;;;;;;;;;;4976725;28;20121;-59
2023/06/22 05:38:38;;;;;;;27.42;22.73;;;;;;;;;;4977204;28;20173;-59
2023/06/22 05:41:05;;;;;;;27.55;23.92;;;;;;;;;;4976660;28;20034;-59
2023/06/22 05:43:31;;;;;;;27.17;24.08;;;;;;;;;;4976725;28;20060;-59
2023/06/22 05:45:58;;;;;;;25.92;23.15;;;;;;;;;;4977189;28;20026;-60
2023/06/22 05:48:24;;;;;;;27.67;23.67;;;;;;;;;;4978992;28;20546;-59
2023/06/22 05:50:50;;;;;;;30.63;25.38;;;;;;;;;;4981564;28;20038;-60
2023/06/22 05:53:16;;;;;;;27.52;24.63;;;;;;;;;;4980306;28;20037;-60
2023/06/22 05:55:42;;;;;;;27.55;24.55;;;;;;;;;;4980900;28;20075;-60
2023/06/22 05:58:08;;;;;;;29.80;25.55;;;;;;;;;;4979826;28;20038;-61
2023/06/22 06:00:35;;;;;;;27.35;23.77;;;;;;;;;;4977130;28;20038;-63
2023/06/22 06:03:03;;;;;;;28.50;25.00;;;;;;;;;;4979096;28;20034;-63
2023/06/22 06:05:33;;;;;;;28.23;24.58;;;;;;;;;;4979841;28;20746;-63
2023/06/22 06:08:00;;;;;;;27.38;24.35;;;;;;;;;;4966867;28;20378;-63
2023/06/22 06:10:26;;;;;;;27.48;23.70;;;;;;;;;;4979410;28;20140;-63
2023/06/22 06:12:52;;;;;;;28.30;25.30;;;;;;;;;;4979624;28;20034;-62
2023/06/22 06:15:18;;;;;;;28.77;25.67;;;;;;;;;;4978959;28;20038;-62
2023/06/22 06:17:52;;;;;;;30.02;25.45;;;;;;;;;;4980534;28;20109;-62
2023/06/22 06:20:23;;;;;;;26.55;23.73;;;;;;;;;;4980787;28;20034;-63
2023/06/22 06:22:49;;;;;;;26.67;23.88;;;;;;;;;;4980207;28;20034;-63
2023/06/22 06:25:18;;;;;;;29.60;25.08;;;;;;;;;;4980323;28;20036;-63
2023/06/22 06:27:44;;;;;;;27.02;24.05;;;;;;;;;;4979181;28;20137;-63
2023/06/22 06:30:11;;;;;;;27.52;23.50;;;;;;;;;;4980440;28;20148;-62
2023/06/22 06:32:38;;;;;;;30.13;24.33;;;;;;;;;;4980758;28;20477;-63
2023/06/22 06:35:04;;;;;;;21.88;18.45;;;;;;;;;;4979485;28;20034;-63
2023/06/22 06:37:30;;;;;;;19.23;17.15;;;;;;;;;;4979835;28;20398;-63
2023/06/22 06:39:56;;;;;;;19.55;17.23;;;;;;;;;;4980338;28;20833;-63
2023/06/22 06:42:24;;;;;;;21.58;18.88;;;;;;;;;;4979280;28;20413;-63
2023/06/22 06:44:50;;;;;;;18.88;16.67;;;;;;;;;;4980086;28;20038;-63
2023/06/22 06:47:16;;;;;;;17.73;14.80;;;;;;;;;;4979813;28;20076;-63
2023/06/22 06:49:43;;;;;;;18.33;14.13;;;;;;;;;;4980388;28;20058;-63
2023/06/22 06:52:09;;;;;;;17.95;15.00;;;;;;;;;;4979742;28;20065;-63
2023/06/22 06:54:35;;;;;;;17.67;15.25;;;;;;;;;;4980067;28;20080;-63
2023/06/22 06:57:03;;;;;;;17.20;14.35;;;;;;;;;;4979097;28;20034;-63
2023/06/22 06:59:30;;;;;;;17.85;14.43;;;;;;;;;;4979458;28;20037;-63
2023/06/22 07:01:56;;;;;;;19.58;14.52;;;;;;;;;;4976785;28;20034;-63
2023/06/22 07:04:22;;;;;;;15.48;13.20;;;;;;;;;;4980680;28;20050;-63
2023/06/22 07:06:48;;;;;;;22.38;14.70;;;;;;;;;;4980080;28;20030;-63
2023/06/22 07:09:14;;;;;;;22.27;15.65;;;;;;;;;;4979633;28;20069;-63
2023/06/22 07:11:40;;;;;;;20.48;14.60;;;;;;;;;;4978389;28;20043;-63
2023/06/22 07:14:06;;;;;;;18.38;12.70;;;;;;;;;;4978742;28;21762;-63
2023/06/22 07:16:32;;;;;;;13.57;11.52;;;;;;;;;;4976661;28;21339;-63
2023/06/22 07:18:58;;;;;;;18.17;12.70;;;;;;;;;;4977611;28;20225;-63
2023/06/22 07:21:24;;;;;;;15.77;12.73;;;;;;;;;;4978481;28;20123;-63
2023/06/22 07:23:50;;;;;;;17.35;13.10;;;;;;;;;;4974371;28;20074;-63
2023/06/22 07:26:16;;;;;;;17.33;12.55;;;;;;;;;;4977084;28;20034;-63
2023/06/22 07:28:43;;;;;;;14.63;11.60;;;;;;;;;;4968721;28;20042;-63
2023/06/22 07:31:09;;;;;;;16.20;12.32;;;;;;;;;;4969793;28;20022;-63
2023/06/22 07:33:35;;;;;;;14.13;11.15;;;;;;;;;;4970371;28;20057;-63
2023/06/22 07:36:02;;;;;;;12.35;11.05;;;;;;;;;;4969653;28;20049;-64
2023/06/22 07:38:28;;;;;;;12.52;9.63;;;;;;;;;;4970155;28;20080;-63
2023/06/22 07:40:54;;;;;;;13.73;9.85;;;;;;;;;;4971957;28;20048;-63
2023/06/22 07:43:20;;;;;;;15.07;11.10;;;;;;;;;;4969519;28;20042;-63
2023/06/22 07:45:54;;;;;;;14.30;10.55;;;;;;;;;;4970469;28;20146;-63
2023/06/22 07:48:23;;;;;;;12.95;10.38;;;;;;;;;;4971714;28;20037;-63
2023/06/22 07:50:49;;;;;;;15.93;9.68;;;;;;;;;;4971186;28;21285;-63
2023/06/22 07:53:15;;;;;;;13.18;10.05;;;;;;;;;;4971644;28;20646;-63
2023/06/22 07:55:41;;;;;;;12.55;9.00;;;;;;;;;;4972058;28;20510;-63
2023/06/22 07:58:07;;;;;;;12.57;7.75;;;;;;;;;;4968917;28;20493;-63
2023/06/22 08:00:34;;;;;;;13.45;9.13;;;;;;;;;;4970764;28;20989;-63
2023/06/22 08:03:03;;;;;;;14.93;9.93;;;;;;;;;;4971550;28;20392;-63
2023/06/22 08:05:30;;;;;;;14.45;9.38;;;;;;;;;;4970756;28;20184;-63
2023/06/22 08:07:56;;;;;;;12.27;9.30;;;;;;;;;;4970533;28;20038;-63
2023/06/22 08:10:22;;;;;;;9.90;7.45;;;;;;;;;;4971112;28;20042;-63
2023/06/22 08:12:48;;;;;;;9.98;8.00;;;;;;;;;;4971796;28;20130;-63
2023/06/22 08:15:14;;;;;;;10.02;7.32;;;;;;;;;;4959110;28;20133;-63
2023/06/22 08:17:40;;;;;;;9.50;6.60;;;;;;;;;;4970901;28;20552;-63
2023/06/22 08:20:10;;;;;;;10.13;5.57;;;;;;;;;;4970185;28;20054;-63
2023/06/22 08:22:36;;;;;;;9.02;5.38;;;;;;;;;;4970258;28;20038;-63
2023/06/22 08:25:03;;;;;;;10.10;5.75;;;;;;;;;;4971065;28;20129;-63
2023/06/22 08:27:33;;;;;;;8.32;6.32;;;;;;;;;;4970282;28;21877;-63
2023/06/22 08:30:00;;;;;;;11.57;6.00;;;;;;;;;;4970912;28;20041;-63
2023/06/22 08:32:26;;;;;;;10.48;5.88;;;;;;;;;;4974874;28;20108;-63
2023/06/22 08:34:53;;;;;;;9.98;6.45;;;;;;;;;;4969610;28;20041;-63
2023/06/22 08:37:19;;;;;;;10.05;6.50;;;;;;;;;;4969632;28;20137;-63
2023/06/22 08:39:46;;;;;;;10.98;7.97;;;;;;;;;;4970137;28;20034;-63
2023/06/22 08:42:12;;;;;;;10.65;7.40;;;;;;;;;;4969842;28;20034;-63
2023/06/22 08:44:38;;;;;;;12.18;7.40;;;;;;;;;;4969542;28;20041;-63
2023/06/22 08:47:05;;;;;;;11.52;7.43;;;;;;;;;;4984989;28;20141;-63
2023/06/22 08:49:31;;;;;;;9.90;6.97;;;;;;;;;;4969238;28;20161;-63
2023/06/22 08:51:57;;;;;;;8.25;5.80;;;;;;;;;;4969686;28;20068;-63
2023/06/22 08:54:23;;;;;;;14.43;7.93;;;;;;;;;;4969686;28;20064;-63
2023/06/22 08:56:49;;;;;;;10.95;7.95;;;;;;;;;;4969817;28;20041;-64
2023/06/22 08:59:15;;;;;;;12.02;6.35;;;;;;;;;;4969880;28;21866;-63
2023/06/22 09:01:45;;;;;;;10.48;7.40;;;;;;;;;;4969637;28;20155;-63
2023/06/22 09:04:11;;;;;;;9.63;5.35;;;;;;;;;;4968975;28;20030;-63
2023/06/22 09:06:44;;;;;;;8.48;5.72;;;;;;;;;;4969845;28;20038;-63
2023/06/22 09:09:10;;;;;;;;;;;;;;;;;;4970081;28;20113;-63
2023/06/22 09:11:36;;;;;;;10.48;5.78;;;;;;;;;;4970285;28;19913;-63
2023/06/22 09:14:03;;;;;;;9.02;6.35;;;;;;;;;;4969519;28;20046;-63
2023/06/22 09:16:29;;;;;;;9.43;5.75;;;;;;;;;;4969184;28;20038;-63
2023/06/22 09:18:56;;;;;;;9.88;5.57;;;;;;;;;;4968828;28;20047;-63
2023/06/22 09:21:22;;;;;;;7.05;5.53;;;;;;;;;;4969538;28;20576;-63
2023/06/22 09:23:51;;;;;;;10.93;6.80;;;;;;;;;;4972897;28;20125;-63
2023/06/22 09:26:17;;;;;;;9.55;6.32;;;;;;;;;;4973167;28;20034;-63
2023/06/22 09:28:43;;;;;;;9.68;5.95;;;;;;;;;;4972656;28;20069;-63
2023/06/22 09:31:09;;;;;;;10.02;5.80;;;;;;;;;;4973507;28;20058;-63
2023/06/22 09:33:36;;;;;;;10.43;6.60;;;;;;;;;;4972748;28;21327;-63
2023/06/22 09:36:02;;;;;;;10.30;5.47;;;;;;;;;;4973389;28;20042;-63
2023/06/22 09:38:28;;;;;;;10.10;6.53;;;;;;;;;;4973073;28;20033;-63
2023/06/22 09:40:54;;;;;;;8.68;6.10;;;;;;;;;;4973562;28;20084;-63
2023/06/22 09:43:20;;;;;;;8.75;6.15;;;;;;;;;;4973572;28;20452;-63
2023/06/22 09:45:46;;;;;;;10.60;6.35;;;;;;;;;;4973148;28;20030;-63
2023/06/22 09:48:12;;;;;;;9.68;5.93;;;;;;;;;;4971135;28;20089;-63
2023/06/22 09:50:38;;;;;;;8.07;5.50;;;;;;;;;;4973423;28;20496;-63
2023/06/22 09:53:04;;;;;;;9.68;7.38;;;;;;;;;;4979871;28;20404;-63
2023/06/22 09:55:30;;;;;;;8.10;5.75;;;;;;;;;;4973163;28;20117;-63
2023/06/22 09:57:56;;;;;;;10.43;6.65;;;;;;;;;;4972719;28;20136;-63
2023/06/22 10:00:22;;;;;;;10.07;5.65;;;;;;;;;;4973005;28;20122;-63
2023/06/22 10:02:49;;;;;;;9.50;5.60;;;;;;;;;;4973797;28;20049;-63
2023/06/22 10:05:15;;;;;;;9.98;6.07;;;;;;;;;;4973003;28;20030;-63
2023/06/22 10:07:43;;;;;;;13.43;8.18;;;;;;;;;;4973172;28;20034;-63
2023/06/22 10:10:10;;;;;;;10.25;6.22;;;;;;;;;;4971967;28;20030;-63
2023/06/22 10:12:36;;;;;;;8.50;5.63;;;;;;;;;;4973008;28;20088;-63
2023/06/22 10:15:02;;;;;;;8.75;5.53;;;;;;;;;;4971929;28;20034;-63
2023/06/22 10:17:28;;;;;;;8.93;6.55;;;;;;;;;;4973132;28;20034;-63
2023/06/22 10:19:54;;;;;;;8.57;5.97;;;;;;;;;;4973414;28;20046;-63
2023/06/22 10:22:20;;;;;;;8.13;5.72;;;;;;;;;;4972250;28;20061;-63
2023/06/22 10:24:46;;;;;;;8.50;5.40;;;;;;;;;;4972792;28;20156;-63
2023/06/22 10:27:13;;;;;;;9.43;5.22;;;;;;;;;;4971136;28;20057;-63
2023/06/22 10:29:39;;;;;;;10.00;5.70;;;;;;;;;;4972201;28;20027;-63
2023/06/22 10:32:05;;;;;;;8.68;5.65;;;;;;;;;;4972403;28;20037;-63
2023/06/22 10:34:31;;;;;;;10.07;5.85;;;;;;;;;;4969829;28;20183;-63
2023/06/22 10:36:57;;;;;;;7.90;5.47;;;;;;;;;;4972472;28;20048;-64
2023/06/22 10:39:24;;;;;;;8.13;5.60;;;;;;;;;;4972213;28;20092;-63
2023/06/22 10:41:50;;;;;;;9.60;5.35;;;;;;;;;;4971802;28;20038;-63
2023/06/22 10:44:17;;;;;;;8.40;5.30;;;;;;;;;;4970223;28;20084;-63
2023/06/22 10:46:43;;;;;;;8.63;5.72;;;;;;;;;;4972085;28;20093;-63
2023/06/22 10:49:09;;;;;;;8.32;5.70;;;;;;;;;;4963178;28;20085;-63
2023/06/22 10:51:35;;;;;;;9.00;6.30;;;;;;;;;;4965382;28;20157;-63
2023/06/22 10:54:01;;;;;;;8.48;6.18;;;;;;;;;;4965956;28;20038;-63
2023/06/22 10:56:27;;;;;;;7.50;4.97;;;;;;;;;;4953719;28;20077;-63
2023/06/22 10:58:53;;;;;;;8.57;5.43;;;;;;;;;;4963960;28;20117;-63
2023/06/22 11:01:21;;;;;;;9.68;6.22;;;;;;;;;;4961592;28;20041;-63
2023/06/22 11:03:47;;;;;;;8.63;6.07;;;;;;;;;;4963877;28;20633;-63
2023/06/22 11:06:14;;;;;;;8.90;5.75;;;;;;;;;;4965485;28;20565;-63
2023/06/22 11:08:40;;;;;;;10.35;5.38;;;;;;;;;;4963735;28;20089;-63
2023/06/22 11:11:06;;;;;;;10.23;5.65;;;;;;;;;;4964332;28;20061;-63
2023/06/22 11:13:32;;;;;;;8.20;5.07;;;;;;;;;;4963742;28;21216;-63
2023/06/22 11:15:58;;;;;;;10.20;5.60;;;;;;;;;;4965481;28;21674;-63
2023/06/22 11:18:24;;;;;;;9.70;5.75;;;;;;;;;;4964663;28;20657;-63
2023/06/22 11:20:50;;;;;;;10.85;5.90;;;;;;;;;;4965336;28;20878;-63
2023/06/22 11:23:16;;;;;;;12.13;6.30;;;;;;;;;;4964296;28;20038;-63
2023/06/22 11:25:42;;;;;;;8.88;5.70;;;;;;;;;;4965298;28;20519;-63
2023/06/22 11:28:08;;;;;;;8.25;6.00;;;;;;;;;;4964496;28;20749;-63
2023/06/22 11:30:34;;;;;;;6.93;5.00;;;;;;;;;;4965289;28;20038;-63
2023/06/22 11:33:01;;;;;;;7.43;5.05;;;;;;;;;;4964661;28;20030;-63
2023/06/22 11:35:27;;;;;;;10.13;6.18;;;;;;;;;;4965360;28;20049;-63
2023/06/22 11:37:53;;;;;;;10.35;4.93;;;;;;;;;;4964659;28;20030;-63
2023/06/22 11:40:19;;;;;;;7.00;4.80;;;;;;;;;;4965383;28;20678;-63
2023/06/22 11:42:45;;;;;;;8.27;5.40;;;;;;;;;;4964221;28;20050;-63
2023/06/22 11:45:11;;;;;;;8.48;4.70;;;;;;;;;;4963703;28;20022;-63
2023/06/22 11:47:37;;;;;;;8.38;5.85;;;;;;;;;;4965717;28;20549;-63
2023/06/22 11:50:04;;;;;;;8.00;5.35;;;;;;;;;;4964281;28;20030;-63
2023/06/22 11:52:30;;;;;;;9.48;5.95;;;;;;;;;;4964593;28;20026;-63
2023/06/22 11:54:56;;;;;;;9.10;5.45;;;;;;;;;;4963898;28;20117;-63
2023/06/22 11:57:22;;;;;;;8.38;6.20;;;;;;;;;;4964233;28;20077;-63
2023/06/22 11:59:48;;;;;;;10.48;5.90;;;;;;;;;;4964487;28;20019;-63
2023/06/22 12:02:14;;;;;;;8.70;6.95;;;;;;;;;;4963538;28;20056;-63
2023/06/22 12:04:40;;;;;;;9.07;6.47;;;;;;;;;;4964054;28;20125;-63
2023/06/22 12:07:06;;;;;;;9.00;6.07;;;;;;;;;;4963841;28;20128;-63
2023/06/22 12:09:32;;;;;;;8.55;6.50;;;;;;;;;;4963299;28;20127;-63
2023/06/22 12:11:58;;;;;;;9.27;6.65;;;;;;;;;;4962607;28;20060;-63
2023/06/22 12:14:24;;;;;;;9.57;6.35;;;;;;;;;;4962801;28;20149;-63
2023/06/22 12:16:51;;;;;;;7.75;5.82;;;;;;;;;;4963470;28;20046;-63
2023/06/22 12:19:17;;;;;;;8.82;5.60;;;;;;;;;;4962215;28;20049;-63
2023/06/22 12:21:45;;;;;;;9.88;6.65;;;;;;;;;;4963790;28;20045;-63
2023/06/22 12:24:12;;;;;;;11.15;6.28;;;;;;;;;;4963166;28;20169;-63
2023/06/22 12:26:38;;;;;;;9.85;5.75;;;;;;;;;;4964300;28;20030;-63
2023/06/22 12:29:04;;;;;;;8.25;5.20;;;;;;;;;;4962461;28;20104;-62
2023/06/22 12:31:30;;;;;;;8.60;5.15;;;;;;;;;;4962915;28;20092;-62
2023/06/22 12:33:56;;;;;;;12.65;6.20;;;;;;;;;;4959143;28;20034;-63
2023/06/22 12:36:22;;;;;;;8.80;6.30;;;;;;;;;;4962090;28;20061;-63
2023/06/22 12:38:48;;;;;;;7.90;5.05;;;;;;;;;;4962238;28;20045;-63
2023/06/22 12:41:14;;;;;;;8.23;5.28;;;;;;;;;;4962543;28;20038;-63
2023/06/22 12:43:41;;;;;;;7.90;4.82;;;;;;;;;;4963045;28;20045;-63
2023/06/22 12:46:07;;;;;;;9.68;3.90;;;;;;;;;;4964121;28;20022;-63
2023/06/22 12:48:33;;;;;;;6.88;3.80;;;;;;;;;;4963615;28;20045;-63
2023/06/22 12:50:59;;;;;;;9.93;4.22;;;;;;;;;;4963059;28;20027;-63
2023/06/22 12:53:27;;;;;;;6.72;4.15;;;;;;;;;;4963654;28;20038;-63
2023/06/22 12:55:53;;;;;;;8.60;4.18;;;;;;;;;;4962680;28;20038;-63
2023/06/22 12:58:19;;;;;;;6.70;3.50;;;;;;;;;;4963089;28;20042;-63
2023/06/22 13:00:45;;;;;;;7.97;3.97;;;;;;;;;;4962851;28;20034;-63
2023/06/22 13:03:11;;;;;;;6.68;3.45;;;;;;;;;;4963259;28;20772;-63
2023/06/22 13:05:38;;;;;;;6.53;3.33;;;;;;;;;;4963059;28;20156;-63
2023/06/22 13:08:04;;;;;;;6.40;3.40;;;;;;;;;;4962221;28;20032;-63
2023/06/22 13:10:30;;;;;;;7.55;3.22;;;;;;;;;;4961352;28;20029;-63
2023/06/22 13:13:00;;;;;;;12.55;3.90;;;;;;;;;;4963014;28;20034;-63
2023/06/22 13:15:29;;;;;;;6.20;3.72;;;;;;;;;;4961511;28;20100;-63
2023/06/22 13:17:56;;;;;;;6.75;3.80;;;;;;;;;;4963324;28;20042;-63
2023/06/22 13:20:22;;;;;;;7.75;4.20;;;;;;;;;;4975432;28;20045;-63
2023/06/22 13:22:48;;;;;;;6.75;3.92;;;;;;;;;;4962657;28;20043;-63
2023/06/22 13:25:18;;;;;;;8.18;3.42;;;;;;;;;;4963196;28;20042;-63
2023/06/22 13:27:45;;;;;;;6.63;3.50;;;;;;;;;;4962963;28;20038;-63
2023/06/22 13:30:11;;;;;;;7.20;3.97;;;;;;;;;;4964041;28;20115;-63
2023/06/22 13:32:37;;;;;;;5.68;3.40;;;;;;;;;;4962818;28;20044;-63
2023/06/22 13:35:03;;;;;;;7.20;2.83;;;;;;;;;;4962262;28;20065;-63
2023/06/22 13:37:30;;;;;;;7.47;2.55;;;;;;;;;;4961812;28;20133;-62
2023/06/22 13:39:59;;;;;;;4.88;2.63;;;;;;;;;;4962273;28;20084;-62
2023/06/22 13:42:25;;;;;;;5.38;2.90;;;;;;;;;;4963159;28;20606;-62
2023/06/22 13:44:51;;;;;;;5.43;2.65;;;;;;;;;;4962633;28;20058;-63
2023/06/22 13:47:17;;;;;;;5.13;2.55;;;;;;;;;;4963116;28;20038;-63
2023/06/22 13:49:43;;;;;;;4.97;2.55;;;;;;;;;;4962662;28;20034;-63
2023/06/22 13:52:10;;;;;;;6.35;2.72;;;;;;;;;;4962838;28;21332;-63
2023/06/22 13:54:36;;;;;;;5.72;2.13;;;;;;;;;;4961229;28;20119;-63
2023/06/22 13:57:03;;;;;;;5.63;2.40;;;;;;;;;;4961814;28;20053;-63
2023/06/22 13:59:29;;;;;;;4.93;2.42;;;;;;;;;;4961438;28;20041;-62
2023/06/22 14:01:55;;;;;;;5.15;2.63;;;;;;;;;;4959462;28;20026;-62
2023/06/22 14:04:22;;;;;;;4.88;2.47;;;;;;;;;;4955848;28;21311;-62
2023/06/22 14:06:48;;;;;;;4.72;2.35;;;;;;;;;;4962065;28;20053;-62
2023/06/22 14:09:14;;;;;;;7.53;2.72;;;;;;;;;;4965218;28;20037;-62
2023/06/22 14:11:40;;;;;;;6.30;2.72;;;;;;;;;;4965832;28;20040;-63
2023/06/22 14:14:06;;;;;;;4.13;2.20;;;;;;;;;;4966353;28;20414;-62
2023/06/22 14:16:32;;;;;;;5.35;2.30;;;;;;;;;;4966700;28;20046;-62
2023/06/22 14:18:58;;;;;;;4.50;2.22;;;;;;;;;;4966641;28;20034;-63
2023/06/22 14:21:24;;;;;;;6.40;2.50;;;;;;;;;;4964169;28;20042;-63
2023/06/22 14:23:50;;;;;;;5.15;1.88;;;;;;;;;;4970467;28;20070;-61
2023/06/22 14:26:19;;;;;;;5.13;2.10;;;;;;;;;;4966148;28;20038;-61